Time;durP1;ratioP1;P1;durP2;ratioP2;P2;SDS_P1;SDS_P2;PMS_P1;PMS_P2;Temp;Humidity;BMP_temperature;BMP_pressure;BME280_temperature;BME280_humidity;BME280_pressure;Samples;Min_cycle;Max_cycle;Signal;HPM_P1;HPM_P2
2023/12/17 00:01:20;;;;;;;19.80;17.50;;;;;;;3.16;100.00;99621.31;106869;1269;22653;-78
2023/12/17 00:03:48;;;;;;;20.70;15.70;;;;;;;3.14;100.00;99619.26;106878;1281;22542;-77
2023/12/17 00:06:16;;;;;;;19.10;16.70;;;;;;;3.13;100.00;99620.25;106856;1282;25614;-77
2023/12/17 00:08:45;;;;;;;18.80;16.70;;;;;;;3.14;100.00;99613.44;106816;1267;22776;-76
2023/12/17 00:11:13;;;;;;;19.50;17.00;;;;;;;3.17;100.00;99597.58;106338;1273;22547;-77
2023/12/17 00:13:41;;;;;;;18.60;16.10;;;;;;;3.18;100.00;99596.02;106831;1266;22578;-78
2023/12/17 00:16:09;;;;;;;19.70;16.70;;;;;;;3.16;100.00;99595.98;106802;1263;24051;-77
2023/12/17 00:18:37;;;;;;;20.10;17.40;;;;;;;3.17;100.00;99584.27;106841;1267;23338;-80
2023/12/17 00:21:06;;;;;;;22.10;16.80;;;;;;;3.20;100.00;99583.98;106782;1281;22652;-77
2023/12/17 00:23:34;;;;;;;19.50;17.20;;;;;;;3.24;100.00;99581.38;106812;1280;23879;-77
2023/12/17 00:26:02;;;;;;;21.40;17.90;;;;;;;3.27;100.00;99584.00;106460;1282;24326;-77
2023/12/17 00:28:30;;;;;;;20.00;16.90;;;;;;;3.28;100.00;99576.48;106418;1265;23916;-76
2023/12/17 00:30:58;;;;;;;19.60;16.70;;;;;;;3.27;100.00;99569.57;106355;1269;22539;-77
2023/12/17 00:33:26;;;;;;;19.10;15.40;;;;;;;3.27;100.00;99571.45;106900;1268;23888;-75
2023/12/17 00:35:54;;;;;;;19.40;16.20;;;;;;;3.33;100.00;99557.41;106390;1282;22540;-75
2023/12/17 00:38:22;;;;;;;21.60;16.90;;;;;;;3.34;100.00;99563.02;106433;1267;24353;-76
2023/12/17 00:40:50;;;;;;;20.00;16.60;;;;;;;3.35;100.00;99555.96;106409;1269;22551;-75
2023/12/17 00:43:18;;;;;;;20.40;18.20;;;;;;;3.35;100.00;99558.71;106460;1267;22545;-78
2023/12/17 00:45:46;;;;;;;21.90;17.80;;;;;;;3.38;100.00;99563.95;106436;1278;22656;-78
2023/12/17 00:48:14;;;;;;;20.10;17.40;;;;;;;3.43;100.00;99576.27;106804;1282;24289;-79
2023/12/17 00:50:43;;;;;;;20.70;17.60;;;;;;;3.51;100.00;99569.15;106642;1281;24404;-78
2023/12/17 00:53:11;;;;;;;23.40;19.40;;;;;;;3.55;100.00;99573.46;106708;1282;23501;-78
2023/12/17 00:55:39;;;;;;;19.00;16.60;;;;;;;3.54;100.00;99571.22;106390;1276;25419;-77
2023/12/17 00:58:07;;;;;;;21.10;17.70;;;;;;;3.53;100.00;99550.90;106374;1269;22662;-77
2023/12/17 01:00:35;;;;;;;23.50;17.70;;;;;;;3.54;100.00;99550.71;106425;1271;22652;-75
2023/12/17 01:03:16;;;;;;;21.10;16.70;;;;;;;3.50;100.00;99547.74;106389;1276;22585;-76
2023/12/17 01:05:45;;;;;;;20.20;16.60;;;;;;;3.48;100.00;99550.79;106427;1269;24351;-75
2023/12/17 01:08:13;;;;;;;19.40;16.30;;;;;;;3.47;100.00;99544.89;106418;1271;25640;-77
2023/12/17 01:10:43;;;;;;;20.20;17.80;;;;;;;3.50;100.00;99544.38;106456;1282;22549;-77
2023/12/17 01:13:11;;;;;;;21.60;18.10;;;;;;;3.49;100.00;99543.13;106467;1271;22541;-77
2023/12/17 01:15:39;;;;;;;23.10;17.10;;;;;;;3.50;100.00;99550.95;106945;1279;22540;-77
2023/12/17 01:18:07;;;;;;;19.90;16.30;;;;;;;3.50;100.00;99554.30;106491;1279;25551;-77
2023/12/17 01:20:35;;;;;;;18.80;15.50;;;;;;;3.48;100.00;99553.38;106422;1281;22799;-76
2023/12/17 01:23:03;;;;;;;20.80;16.50;;;;;;;3.52;100.00;99556.39;106524;1280;25384;-77
2023/12/17 01:25:31;;;;;;;19.30;16.50;;;;;;;3.52;100.00;99543.52;106833;1271;25381;-76
2023/12/17 01:27:59;;;;;;;18.40;16.10;;;;;;;3.52;100.00;99542.25;106457;1270;22553;-77
2023/12/17 01:30:28;;;;;;;21.20;16.00;;;;;;;3.52;100.00;99542.13;106405;1282;25540;-77
2023/12/17 01:32:56;;;;;;;20.60;16.60;;;;;;;3.55;100.00;99562.97;106859;1281;22540;-77
2023/12/17 01:35:24;;;;;;;22.60;16.50;;;;;;;3.58;100.00;99558.61;106372;1282;22565;-77
2023/12/17 01:37:52;;;;;;;19.10;16.20;;;;;;;3.56;100.00;99559.85;106416;1282;24413;-78
2023/12/17 01:40:20;;;;;;;19.30;15.60;;;;;;;3.57;100.00;99564.20;106759;1267;22572;-75
2023/12/17 01:42:52;;;;;;;18.60;16.20;;;;;;;3.58;100.00;99570.34;106413;1275;22541;-76
2023/12/17 01:45:20;;;;;;;19.70;17.20;;;;;;;3.60;100.00;99564.68;106401;1281;22568;-76
2023/12/17 01:47:49;;;;;;;20.80;16.50;;;;;;;3.59;100.00;99576.37;106416;1269;25628;-77
2023/12/17 01:50:17;;;;;;;19.30;15.20;;;;;;;3.56;100.00;99561.04;106484;1281;22649;-77
2023/12/17 01:52:45;;;;;;;18.50;15.70;;;;;;;3.59;100.00;99562.19;106422;1276;22544;-76
2023/12/17 01:55:14;;;;;;;18.30;15.80;;;;;;;3.57;100.00;99559.64;106547;1282;25221;-76
2023/12/17 01:57:42;;;;;;;17.60;15.40;;;;;;;3.59;100.00;99565.41;106534;1283;22560;-77
2023/12/17 02:00:11;;;;;;;18.20;15.70;;;;;;;3.58;100.00;99565.98;106522;1283;25245;-76
2023/12/17 02:02:39;;;;;;;16.50;14.70;;;;;;;3.56;100.00;99561.48;106398;1275;25423;-77
2023/12/17 02:05:07;;;;;;;18.90;15.50;;;;;;;3.56;100.00;99557.20;106668;1282;22626;-77
2023/12/17 02:07:35;;;;;;;18.20;16.30;;;;;;;3.58;100.00;99555.83;106358;1268;22554;-77
2023/12/17 02:10:04;;;;;;;21.70;17.60;;;;;;;3.58;100.00;99547.79;106394;1282;23897;-77
2023/12/17 02:12:32;;;;;;;20.40;16.80;;;;;;;3.58;100.00;99549.46;106826;1283;22571;-76
2023/12/17 02:15:00;;;;;;;18.60;15.90;;;;;;;3.57;100.00;99539.35;106804;1271;22546;-76
2023/12/17 02:17:30;;;;;;;19.90;15.70;;;;;;;3.60;100.00;99547.61;106380;1278;24308;-77
2023/12/17 02:19:59;;;;;;;20.10;17.00;;;;;;;3.57;100.00;99557.50;106781;1269;26210;-78
2023/12/17 02:22:27;;;;;;;18.70;14.30;;;;;;;3.59;100.00;99566.04;106853;1271;22651;-77
2023/12/17 02:24:55;;;;;;;17.30;14.40;;;;;;;3.58;100.00;99559.11;106986;1282;23292;-76
2023/12/17 02:27:25;;;;;;;17.70;14.70;;;;;;;3.59;100.00;99555.20;106570;1267;22599;-76
2023/12/17 02:29:55;;;;;;;20.30;16.50;;;;;;;3.59;100.00;99555.13;106885;1281;22539;-78
2023/12/17 02:32:23;;;;;;;19.30;16.70;;;;;;;3.61;100.00;99548.44;106861;1276;22593;-78
2023/12/17 02:34:52;;;;;;;22.00;16.00;;;;;;;3.58;100.00;99556.15;106922;1275;22541;-77
2023/12/17 02:37:20;;;;;;;17.10;14.80;;;;;;;3.60;100.00;99561.80;106517;1282;22797;-78
2023/12/17 02:39:48;;;;;;;17.00;14.00;;;;;;;3.60;100.00;99554.91;106832;1266;24063;-77
2023/12/17 02:42:18;;;;;;;19.50;15.80;;;;;;;3.60;100.00;99546.46;106450;1282;22542;-76
2023/12/17 02:44:46;;;;;;;17.60;15.60;;;;;;;3.60;100.00;99540.77;106442;1277;22664;-76
2023/12/17 02:47:14;;;;;;;19.70;15.80;;;;;;;3.58;100.00;99533.85;106621;1280;23882;-75
2023/12/17 02:49:42;;;;;;;18.40;14.70;;;;;;;3.55;100.00;99542.43;106691;1276;25436;-76
2023/12/17 02:52:11;;;;;;;18.80;15.30;;;;;;;3.57;100.00;99557.06;106493;1281;22547;-76
2023/12/17 02:54:39;;;;;;;16.90;14.30;;;;;;;3.54;100.00;99561.34;106413;1266;25569;-76
2023/12/17 02:57:07;;;;;;;20.50;15.40;;;;;;;3.52;100.00;99556.11;106410;1276;23146;-77
2023/12/17 02:59:35;;;;;;;17.40;15.30;;;;;;;3.51;100.00;99549.95;106438;1279;23927;-77
2023/12/17 03:02:03;;;;;;;18.60;14.30;;;;;;;3.49;100.00;99551.03;106839;1272;22535;-76
2023/12/17 03:04:31;;;;;;;18.00;13.90;;;;;;;3.46;100.00;99553.58;106423;1278;25582;-77
2023/12/17 03:06:59;;;;;;;16.70;13.80;;;;;;;3.45;100.00;99553.71;106794;1281;22559;-77
2023/12/17 03:09:27;;;;;;;17.70;14.00;;;;;;;3.45;100.00;99553.45;106413;1272;22751;-77
2023/12/17 03:11:55;;;;;;;17.70;14.70;;;;;;;3.44;100.00;99544.13;106594;1278;24095;-77
2023/12/17 03:14:24;;;;;;;19.00;15.50;;;;;;;3.40;100.00;99544.14;106675;1281;25364;-76
2023/12/17 03:16:52;;;;;;;18.30;13.40;;;;;;;3.39;100.00;99544.27;106680;1281;22540;-77
2023/12/17 03:19:20;;;;;;;16.40;14.60;;;;;;;3.36;100.00;99541.12;106504;1281;22571;-77
2023/12/17 03:21:48;;;;;;;18.00;15.60;;;;;;;3.34;100.00;99540.67;106548;1281;22916;-77
2023/12/17 03:24:16;;;;;;;17.00;14.10;;;;;;;3.33;100.00;99540.77;106539;1281;22551;-76
2023/12/17 03:26:45;;;;;;;18.70;14.70;;;;;;;3.32;100.00;99529.95;106632;1272;22679;-78
2023/12/17 03:29:13;;;;;;;18.90;14.30;;;;;;;3.27;100.00;99532.43;106958;1278;24216;-78
2023/12/17 03:31:41;;;;;;;16.70;14.40;;;;;;;3.25;100.00;99535.96;106787;1269;24228;-77
2023/12/17 03:34:10;;;;;;;14.70;13.20;;;;;;;3.19;100.00;99528.52;106832;1273;25258;-75
2023/12/17 03:36:38;;;;;;;18.00;14.20;;;;;;;3.15;100.00;99530.55;106435;1281;23146;-75
2023/12/17 03:39:07;;;;;;;16.30;14.30;;;;;;;3.13;100.00;99522.06;106469;1281;22542;-77
2023/12/17 03:41:35;;;;;;;19.00;14.80;;;;;;;3.10;100.00;99527.08;106413;1271;25256;-75
2023/12/17 03:44:03;;;;;;;17.50;14.20;;;;;;;3.05;100.00;99521.20;106368;1272;22549;-75
2023/12/17 03:46:32;;;;;;;18.60;15.20;;;;;;;3.01;100.00;99518.18;106361;1282;22543;-77
2023/12/17 03:49:00;;;;;;;16.60;14.00;;;;;;;3.03;100.00;99519.27;106455;1275;22563;-77
2023/12/17 03:51:28;;;;;;;17.20;14.40;;;;;;;3.01;100.00;99509.32;106792;1283;22565;-79
2023/12/17 03:53:56;;;;;;;16.70;13.50;;;;;;;2.96;100.00;99508.59;106804;1279;22513;-80
2023/12/17 03:56:24;;;;;;;17.50;14.60;;;;;;;2.95;100.00;99512.54;106932;1282;25649;-79
2023/12/17 03:58:52;;;;;;;16.60;14.20;;;;;;;2.94;100.00;99515.45;106883;1279;22593;-79
2023/12/17 04:01:20;;;;;;;19.40;14.90;;;;;;;2.93;100.00;99509.83;106830;1283;22603;-80
2023/12/17 04:03:48;;;;;;;19.60;15.90;;;;;;;2.92;100.00;99508.25;107069;1278;22749;-79
2023/12/17 04:06:16;;;;;;;16.30;14.00;;;;;;;2.90;100.00;99503.66;106916;1282;25345;-79
2023/12/17 04:08:45;;;;;;;16.20;13.90;;;;;;;2.86;100.00;99510.11;106822;1282;24223;-79
2023/12/17 04:11:13;;;;;;;20.80;14.70;;;;;;;2.86;100.00;99492.77;106667;1281;22581;-80
2023/12/17 04:13:41;;;;;;;17.40;14.70;;;;;;;2.88;100.00;99495.36;106694;1279;22600;-79
2023/12/17 04:16:09;;;;;;;22.20;15.60;;;;;;;2.85;100.00;99503.55;106756;1282;24435;-79
2023/12/17 04:18:37;;;;;;;19.40;15.40;;;;;;;2.82;100.00;99512.12;106716;1275;25291;-78
2023/12/17 04:21:06;;;;;;;16.60;12.70;;;;;;;2.80;100.00;99512.91;106801;1270;25392;-77
2023/12/17 04:23:34;;;;;;;15.80;13.20;;;;;;;2.82;100.00;99515.36;106830;1269;22565;-78
2023/12/17 04:26:02;;;;;;;19.70;15.20;;;;;;;2.82;100.00;99509.02;106818;1264;24219;-78
2023/12/17 04:28:30;;;;;;;17.40;14.40;;;;;;;2.82;100.00;99506.80;106806;1277;22547;-78
2023/12/17 04:30:58;;;;;;;18.50;14.10;;;;;;;2.81;100.00;99505.94;106804;1273;22555;-78
2023/12/17 04:33:26;;;;;;;18.80;13.30;;;;;;;2.78;100.00;99499.52;106872;1275;23533;-78
2023/12/17 04:35:54;;;;;;;19.40;13.70;;;;;;;2.80;100.00;99499.10;106827;1277;22802;-78
2023/12/17 04:38:23;;;;;;;19.00;14.40;;;;;;;2.81;100.00;99500.48;106777;1262;22580;-78
2023/12/17 04:40:51;;;;;;;15.00;11.80;;;;;;;2.81;100.00;99504.84;106799;1264;22575;-79
2023/12/17 04:43:21;;;;;;;16.30;13.60;;;;;;;2.79;100.00;99510.95;106700;1270;22568;-78
2023/12/17 04:45:49;;;;;;;19.70;14.00;;;;;;;2.78;100.00;99512.34;106895;1276;24231;-78
2023/12/17 04:48:17;;;;;;;14.80;13.30;;;;;;;2.79;100.00;99504.42;106959;1282;24466;-78
2023/12/17 04:50:45;;;;;;;16.70;12.30;;;;;;;2.81;100.00;99500.95;106836;1270;22593;-79
2023/12/17 04:53:13;;;;;;;15.40;13.40;;;;;;;2.83;100.00;99504.49;106919;1281;25342;-78
2023/12/17 04:55:41;;;;;;;17.30;13.50;;;;;;;2.82;100.00;99507.49;106899;1283;25558;-78
2023/12/17 04:58:09;;;;;;;15.00;12.20;;;;;;;2.82;100.00;99518.10;106882;1270;22547;-78
2023/12/17 05:00:37;;;;;;;14.00;12.50;;;;;;;2.79;100.00;99509.47;106756;1260;22534;-78
2023/12/17 05:03:06;;;;;;;18.30;12.70;;;;;;;2.85;100.00;99510.89;106687;1283;22572;-78
2023/12/17 05:05:37;;;;;;;15.50;12.00;;;;;;;2.87;100.00;99507.04;106800;1274;24284;-78
2023/12/17 05:08:05;;;;;;;15.90;13.30;;;;;;;2.84;100.00;99507.23;106822;1281;22574;-78
2023/12/17 05:10:33;;;;;;;15.80;12.60;;;;;;;2.83;100.00;99510.71;106412;1280;22551;-78
2023/12/17 05:13:01;;;;;;;14.50;12.30;;;;;;;2.82;100.00;99509.88;106803;1281;24515;-78
2023/12/17 05:15:31;;;;;;;16.40;12.50;;;;;;;2.82;100.00;99504.63;106716;1282;23188;-78
2023/12/17 05:18:00;;;;;;;14.60;12.90;;;;;;;2.82;100.00;99502.42;106748;1281;25378;-79
2023/12/17 05:20:28;;;;;;;17.60;13.40;;;;;;;2.83;100.00;99497.09;106773;1264;25468;-77
2023/12/17 05:22:56;;;;;;;16.30;13.30;;;;;;;2.82;100.00;99498.12;106451;1281;22545;-78
2023/12/17 05:25:24;;;;;;;16.20;12.70;;;;;;;2.80;100.00;99495.54;106900;1282;25412;-77
2023/12/17 05:27:52;;;;;;;14.20;12.70;;;;;;;2.80;100.00;99500.58;106919;1281;22797;-78
2023/12/17 05:30:22;;;;;;;17.60;12.90;;;;;;;2.81;100.00;99500.73;106958;1281;22564;-78
2023/12/17 05:32:51;;;;;;;16.80;13.30;;;;;;;2.82;100.00;99505.08;106915;1281;22596;-78
2023/12/17 05:35:19;;;;;;;15.60;13.90;;;;;;;2.81;100.00;99501.11;106696;1270;25432;-78
2023/12/17 05:37:47;;;;;;;20.40;11.90;;;;;;;2.80;100.00;99500.21;106760;1267;22536;-78
2023/12/17 05:40:15;;;;;;;16.30;12.40;;;;;;;2.77;100.00;99487.40;106747;1280;22559;-77
2023/12/17 05:42:43;;;;;;;17.40;12.80;;;;;;;2.78;100.00;99491.74;106393;1281;22994;-78
2023/12/17 05:45:11;;;;;;;14.40;12.80;;;;;;;2.80;100.00;99493.05;106352;1281;22779;-78
2023/12/17 05:47:41;;;;;;;14.90;12.40;;;;;;;2.79;100.00;99490.59;106744;1281;22531;-78
2023/12/17 05:50:10;;;;;;;14.90;13.30;;;;;;;2.77;100.00;99496.69;107070;1279;23221;-78
2023/12/17 05:52:38;;;;;;;16.70;12.70;;;;;;;2.79;100.00;99485.23;106844;1281;24407;-77
2023/12/17 05:55:07;;;;;;;15.20;12.50;;;;;;;2.78;100.00;99495.63;106867;1282;25419;-78
2023/12/17 05:57:36;;;;;;;12.70;11.10;;;;;;;2.80;100.00;99493.09;106759;1270;24282;-77
2023/12/17 06:00:04;;;;;;;14.40;12.10;;;;;;;2.79;100.00;99494.23;106820;1267;22596;-78
2023/12/17 06:02:33;;;;;;;13.80;12.00;;;;;;;2.77;100.00;99492.27;106697;1282;22579;-77
2023/12/17 06:05:01;;;;;;;15.00;12.30;;;;;;;2.77;100.00;99491.65;106770;1270;22539;-78
2023/12/17 06:07:28;;;;;;;15.60;11.30;;;;;;;2.79;100.00;99485.91;106821;1267;24363;-78
2023/12/17 06:09:56;;;;;;;15.70;11.50;;;;;;;2.80;100.00;99492.92;106871;1264;25269;-78
2023/12/17 06:12:24;;;;;;;15.80;13.00;;;;;;;2.81;100.00;99487.85;106447;1273;23881;-77
2023/12/17 06:14:53;;;;;;;14.20;12.10;;;;;;;2.80;100.00;99495.01;106840;1282;25552;-78
2023/12/17 06:17:20;;;;;;;16.50;12.30;;;;;;;2.78;100.00;99493.55;106769;1283;22577;-78
2023/12/17 06:19:48;;;;;;;15.60;12.40;;;;;;;2.79;100.00;99491.95;106799;1275;22549;-78
2023/12/17 06:22:17;;;;;;;13.80;11.80;;;;;;;2.78;100.00;99485.71;106852;1278;24863;-78
2023/12/17 06:24:45;;;;;;;14.80;12.00;;;;;;;2.81;100.00;99486.37;106575;1280;22540;-78
2023/12/17 06:27:17;;;;;;;15.00;13.40;;;;;;;2.85;100.00;99489.05;106759;1282;24341;-77
2023/12/17 06:29:52;;;;;;;14.50;12.90;;;;;;;2.83;100.00;99486.20;106385;1283;22614;-77
2023/12/17 06:32:20;;;;;;;19.20;15.50;;;;;;;2.83;100.00;99488.08;106908;1281;22659;-80
2023/12/17 06:34:48;;;;;;;18.00;15.10;;;;;;;2.83;100.00;99489.48;106849;1282;24231;-78
2023/12/17 06:37:16;;;;;;;18.80;16.80;;;;;;;2.84;100.00;99489.79;106791;1282;22552;-78
2023/12/17 06:39:44;;;;;;;20.70;18.50;;;;;;;2.88;100.00;99488.59;106823;1271;22656;-77
2023/12/17 06:42:12;;;;;;;19.00;16.80;;;;;;;2.86;100.00;99504.00;106416;1283;25612;-77
2023/12/17 06:44:40;;;;;;;19.10;16.00;;;;;;;2.85;100.00;99502.36;106590;1262;23164;-78
2023/12/17 06:47:08;;;;;;;17.20;15.20;;;;;;;2.86;100.00;99503.43;106856;1265;25255;-78
2023/12/17 06:49:55;;;;;;;17.30;15.30;;;;;;;2.87;100.00;99506.73;106839;1281;22567;-78
2023/12/17 06:52:23;;;;;;;15.80;12.50;;;;;;;2.90;100.00;99512.23;106765;1281;25504;-78
2023/12/17 06:54:51;;;;;;;18.00;13.70;;;;;;;2.93;100.00;99520.32;106907;1266;24302;-78
2023/12/17 06:57:19;;;;;;;16.90;14.10;;;;;;;2.95;100.00;99521.13;106867;1267;22575;-78
2023/12/17 06:59:49;;;;;;;13.70;12.10;;;;;;;2.96;100.00;99520.73;106816;1281;22554;-79
2023/12/17 07:02:18;;;;;;;15.20;12.60;;;;;;;2.97;100.00;99520.52;106776;1281;25426;-78
2023/12/17 07:04:46;;;;;;;32.60;29.40;;;;;;;2.98;100.00;99519.58;106720;1281;22594;-79
2023/12/17 07:07:14;;;;;;;21.10;19.00;;;;;;;3.00;100.00;99524.98;106755;1281;24470;-77
2023/12/17 07:09:42;;;;;;;28.00;25.00;;;;;;;3.02;100.00;99537.52;106733;1276;23947;-79
2023/12/17 07:12:10;;;;;;;32.40;26.20;;;;;;;3.04;100.00;99543.89;106680;1281;22538;-79
2023/12/17 07:14:39;;;;;;;30.70;23.90;;;;;;;3.06;100.00;99540.87;106872;1281;23902;-79
2023/12/17 07:17:06;;;;;;;18.00;14.10;;;;;;;3.07;100.00;99547.98;106734;1270;24297;-78
2023/12/17 07:19:35;;;;;;;18.00;15.20;;;;;;;3.11;100.00;99548.42;106664;1278;22562;-79
2023/12/17 07:22:03;;;;;;;18.20;16.30;;;;;;;3.12;100.00;99544.29;106599;1267;23000;-79
2023/12/17 07:24:31;;;;;;;14.60;12.00;;;;;;;3.14;100.00;99544.85;106642;1270;22570;-79
2023/12/17 07:26:59;;;;;;;18.90;16.30;;;;;;;3.17;100.00;99547.09;106652;1281;24397;-79
2023/12/17 07:29:27;;;;;;;17.70;14.20;;;;;;;3.18;100.00;99547.50;106722;1281;22782;-78
2023/12/17 07:31:55;;;;;;;17.90;15.10;;;;;;;3.18;100.00;99547.99;106522;1281;25350;-80
2023/12/17 07:34:23;;;;;;;18.50;15.70;;;;;;;3.22;100.00;99545.35;106648;1266;22625;-79
2023/12/17 07:36:51;;;;;;;16.70;14.30;;;;;;;3.23;100.00;99545.43;106912;1281;22597;-79
2023/12/17 07:39:19;;;;;;;16.50;12.30;;;;;;;3.23;100.00;99550.52;106953;1281;22771;-78
2023/12/17 07:41:47;;;;;;;14.60;12.90;;;;;;;3.23;100.00;99555.23;106904;1281;22539;-79
2023/12/17 07:44:15;;;;;;;18.90;15.00;;;;;;;3.25;100.00;99561.28;106816;1269;22792;-79
2023/12/17 07:46:44;;;;;;;16.00;14.30;;;;;;;3.27;100.00;99562.39;107136;1281;24230;-78
2023/12/17 07:49:12;;;;;;;15.20;12.80;;;;;;;3.31;100.00;99557.50;107944;1281;23927;-77
2023/12/17 07:51:41;;;;;;;15.50;13.80;;;;;;;3.31;100.00;99566.39;107185;1275;23818;-77
2023/12/17 07:54:09;;;;;;;19.80;16.80;;;;;;;3.32;100.00;99564.95;107282;1281;22640;-79
2023/12/17 07:56:37;;;;;;;21.30;17.30;;;;;;;3.33;100.00;99561.99;106897;1279;23533;-78
2023/12/17 07:59:05;;;;;;;22.70;16.00;;;;;;;3.35;100.00;99554.41;107143;1281;24378;-81
2023/12/17 08:01:34;;;;;;;14.00;12.50;;;;;;;3.36;100.00;99561.16;107232;1281;23340;-77
2023/12/17 08:04:02;;;;;;;18.90;16.90;;;;;;;3.40;100.00;99557.41;106812;1281;22549;-77
2023/12/17 08:06:30;;;;;;;19.80;17.70;;;;;;;3.40;100.00;99552.95;106816;1281;22571;-79
2023/12/17 08:09:01;;;;;;;17.00;15.30;;;;;;;3.42;100.00;99558.27;106821;1281;24404;-79
2023/12/17 08:11:29;;;;;;;17.90;15.90;;;;;;;3.45;100.00;99554.52;106829;1281;22614;-78
2023/12/17 08:13:57;;;;;;;13.70;12.30;;;;;;;3.48;100.00;99552.52;106443;1262;22667;-76
2023/12/17 08:16:26;;;;;;;16.60;14.90;;;;;;;3.52;100.00;99553.31;106374;1281;24393;-77
2023/12/17 08:18:54;;;;;;;16.60;14.90;;;;;;;3.57;100.00;99547.42;106856;1281;25262;-78
2023/12/17 08:21:22;;;;;;;14.70;13.20;;;;;;;3.62;100.00;99548.09;106864;1281;22560;-78
2023/12/17 08:23:50;;;;;;;16.30;14.60;;;;;;;3.68;100.00;99554.38;106887;1281;22590;-78
2023/12/17 08:26:19;;;;;;;25.30;22.80;;;;;;;3.72;100.00;99554.44;106816;1273;25315;-79
2023/12/17 08:28:47;;;;;;;21.80;19.70;;;;;;;3.77;100.00;99554.34;106865;1281;23917;-78
2023/12/17 08:31:15;;;;;;;22.10;19.80;;;;;;;3.84;100.00;99554.95;106876;1270;22607;-78
2023/12/17 08:33:44;;;;;;;17.10;15.50;;;;;;;3.87;100.00;99555.38;106403;1281;25303;-77
2023/12/17 08:36:13;;;;;;;13.90;12.40;;;;;;;3.88;100.00;99563.00;106967;1265;24408;-77
2023/12/17 08:38:45;;;;;;;18.70;16.60;;;;;;;3.93;100.00;99568.40;106860;1281;22575;-79
2023/12/17 08:41:14;;;;;;;14.90;13.40;;;;;;;3.99;100.00;99571.43;106888;1266;23892;-79
2023/12/17 08:43:42;;;;;;;18.30;16.40;;;;;;;4.03;100.00;99568.33;106872;1281;22663;-79
2023/12/17 08:46:11;;;;;;;16.80;15.00;;;;;;;4.04;100.00;99567.54;106878;1281;24250;-78
2023/12/17 08:48:39;;;;;;;15.60;13.50;;;;;;;4.07;100.00;99565.02;106919;1278;22583;-78
2023/12/17 08:51:07;;;;;;;14.90;13.30;;;;;;;4.13;100.00;99571.18;106906;1281;22551;-77
2023/12/17 08:53:35;;;;;;;15.20;13.30;;;;;;;4.16;100.00;99570.55;106916;1259;23011;-79
2023/12/17 08:56:04;;;;;;;13.40;12.00;;;;;;;4.23;100.00;99568.37;106838;1275;23130;-78
2023/12/17 08:58:32;;;;;;;15.40;13.80;;;;;;;4.26;100.00;99568.91;106835;1266;23873;-78
2023/12/17 09:01:00;;;;;;;13.80;12.40;;;;;;;4.24;100.00;99572.63;106823;1281;22552;-79
2023/12/17 09:03:28;;;;;;;12.70;11.40;;;;;;;4.28;100.00;99573.66;106948;1259;24252;-78
2023/12/17 09:05:56;;;;;;;15.80;14.20;;;;;;;4.31;100.00;99570.94;106829;1281;22559;-79
2023/12/17 09:08:24;;;;;;;16.50;14.10;;;;;;;4.33;100.00;99569.15;106900;1281;25306;-79
2023/12/17 09:10:52;;;;;;;13.30;12.00;;;;;;;4.33;100.00;99568.58;106844;1267;22547;-78
2023/12/17 09:13:22;;;;;;;14.30;12.90;;;;;;;4.36;100.00;99573.40;106412;1281;24357;-79
2023/12/17 09:15:51;;;;;;;14.10;12.70;;;;;;;4.40;100.00;99568.04;106769;1272;22666;-79
2023/12/17 09:18:19;;;;;;;14.70;13.10;;;;;;;4.44;100.00;99566.52;106755;1275;22548;-78
2023/12/17 09:20:48;;;;;;;16.30;14.60;;;;;;;4.46;100.00;99562.85;106620;1267;22596;-78
2023/12/17 09:23:16;;;;;;;16.70;14.30;;;;;;;4.49;100.00;99559.91;106967;1270;25290;-79
2023/12/17 09:25:44;;;;;;;15.90;13.80;;;;;;;4.52;100.00;99560.27;106920;1281;22587;-78
2023/12/17 09:28:12;;;;;;;17.40;13.60;;;;;;;4.59;100.00;99560.36;106930;1278;22590;-79
2023/12/17 09:30:40;;;;;;;17.90;15.10;;;;;;;4.66;100.00;99553.70;106849;1281;22654;-78
2023/12/17 09:33:08;;;;;;;17.60;15.90;;;;;;;4.71;100.00;99546.12;106866;1274;22603;-78
2023/12/17 09:35:38;;;;;;;15.70;13.10;;;;;;;4.80;100.00;99539.77;106929;1274;24254;-78
2023/12/17 09:38:06;;;;;;;14.90;12.90;;;;;;;4.89;100.00;99540.61;106921;1267;22553;-78
2023/12/17 09:40:39;;;;;;;16.80;15.20;;;;;;;4.97;100.00;99548.66;106573;1278;22662;-78
2023/12/17 09:43:09;;;;;;;48.70;26.10;;;;;;;5.03;100.00;99542.84;106905;1281;22482;-78
2023/12/17 09:45:37;;;;;;;33.50;20.20;;;;;;;5.05;100.00;99547.97;106772;1266;22548;-78
2023/12/17 09:48:05;;;;;;;42.70;22.50;;;;;;;5.12;100.00;99528.04;106788;1281;25441;-78
2023/12/17 09:50:33;;;;;;;18.70;15.60;;;;;;;5.15;100.00;99548.77;106463;1266;24367;-78
2023/12/17 09:53:02;;;;;;;16.20;14.20;;;;;;;5.13;100.00;99553.25;106562;1269;133860;-79
2023/12/17 09:55:30;;;;;;;25.90;18.70;;;;;;;5.13;100.00;99540.73;106934;1281;22662;-78
2023/12/17 09:58:04;;;;;;;20.90;17.20;;;;;;;5.20;100.00;99552.98;106910;1281;23139;-78
2023/12/17 10:00:32;;;;;;;;;;;;;;;5.29;100.00;99546.26;106852;1281;22554;-78
2023/12/17 10:03:03;;;;;;;16.40;14.70;;;;;;;5.38;100.00;99542.04;106891;1281;25308;-78
2023/12/17 10:05:32;;;;;;;16.40;13.00;;;;;;;5.44;100.00;99533.82;106951;1275;24247;-78
2023/12/17 10:08:00;;;;;;;15.70;13.40;;;;;;;5.51;100.00;99538.95;106902;1281;23365;-79
2023/12/17 10:10:30;;;;;;;16.70;15.00;;;;;;;5.56;100.00;99540.45;106460;1270;22572;-78
2023/12/17 10:12:58;;;;;;;17.30;15.30;;;;;;;5.55;100.00;99536.52;106941;1267;25306;-79
2023/12/17 10:15:26;;;;;;;15.90;13.70;;;;;;;5.54;100.00;99541.10;106849;1281;24434;-77
2023/12/17 10:17:54;;;;;;;16.60;14.90;;;;;;;5.55;100.00;99536.64;106602;1281;24380;-78
2023/12/17 10:20:23;;;;;;;18.00;15.60;;;;;;;5.58;100.00;99541.98;106934;1281;22696;-78
2023/12/17 10:22:59;;;;;;;18.30;16.40;;;;;;;5.64;100.00;99534.10;106952;1275;25263;-78
2023/12/17 10:25:27;;;;;;;17.90;16.00;;;;;;;5.72;100.00;99529.86;106885;1281;24239;-79
2023/12/17 10:28:00;;;;;;;20.10;18.00;;;;;;;5.77;100.00;99532.52;106813;1278;24205;-78
2023/12/17 10:30:30;;;;;;;22.10;20.00;;;;;;;5.85;100.00;99532.94;106866;1281;22609;-77
2023/12/17 10:33:02;;;;;;;16.90;15.30;;;;;;;5.91;100.00;99527.72;106855;1259;24251;-78
2023/12/17 10:35:31;;;;;;;18.90;16.90;;;;;;;5.97;100.00;99525.89;106858;1275;22595;-78
2023/12/17 10:38:05;;;;;;;18.10;15.20;;;;;;;5.96;100.00;99532.41;106909;1275;24278;-77
2023/12/17 10:40:35;;;;;;;19.10;16.80;;;;;;;5.89;100.00;99522.84;106891;1270;24634;-79
2023/12/17 10:43:07;;;;;;;16.90;15.20;;;;;;;5.85;100.00;99529.90;106872;1275;25561;-77
2023/12/17 10:45:37;;;;;;;17.50;15.70;;;;;;;5.78;100.00;99521.69;106921;1281;22538;-78
2023/12/17 10:48:08;;;;;;;18.10;16.40;;;;;;;5.72;100.00;99515.39;106734;1281;22707;-78
2023/12/17 10:51:17;;;;;;;19.50;17.30;;;;;;;5.68;100.00;99504.16;107017;1268;22779;-80
2023/12/17 10:53:46;;;;;;;17.90;16.20;;;;;;;5.68;100.00;99518.73;107018;1281;22656;-78
2023/12/17 10:56:16;;;;;;;18.50;16.70;;;;;;;5.67;100.00;99519.48;106921;1270;22625;-78
2023/12/17 10:58:46;;;;;;;19.60;17.70;;;;;;;5.65;100.00;99509.52;106970;1281;22559;-79
2023/12/17 11:01:14;;;;;;;18.60;16.80;;;;;;;5.63;100.00;99514.03;106814;1275;25413;-79
2023/12/17 11:03:42;;;;;;;19.00;16.90;;;;;;;5.66;100.00;99521.85;106758;1281;22542;-79
2023/12/17 11:06:11;;;;;;;17.30;15.70;;;;;;;5.66;100.00;99505.11;106469;1281;24222;-79
2023/12/17 11:08:39;;;;;;;19.10;16.70;;;;;;;5.67;100.00;99505.79;106905;1281;22587;-79
2023/12/17 11:11:07;;;;;;;19.90;17.30;;;;;;;5.62;100.00;99499.73;106775;1281;24248;-77
2023/12/17 11:13:35;;;;;;;17.00;15.40;;;;;;;5.62;100.00;99500.14;106400;1272;24231;-78
2023/12/17 11:16:24;;;;;;;19.00;16.10;;;;;;;5.62;100.00;99506.27;106912;1278;22541;-78